ETEB 170656Z AUTO 26003KT 9999 OVC046 12/11 A3004 RMK AO2 SLP186 T01230112 $ ETIK 170656Z AUTO 00000KT 9999 SCT047 13/13 A3006 RMK AO2 SLP181 T01290127 EDDE 170650Z 26009KT 9999 FEW030 BKN036 13/11 Q1016 NOSIG EDDF 170650Z 22003KT 190V280 9999 FEW036 15/12 Q1017 NOSIG ETIC 170656Z AUTO 27004KT 9999 FEW010 OVC046 13/12 A3001 RMK AO2 SLP162 T01310115 $ EDQM 170650Z 27005KT 240V300 9999 FEW026 SCT042 11/09 Q1016 ETIH 170656Z AUTO 27003KT 9999 BKN008 OVC049 12/11 A3003 RMK AO2 SLP168 T01230107 ETSI 170620Z 25003KT 9999 BKN050 12/10 Q1017 BLU BLU EDDP 170650Z 27007KT 4000 -RADZ SCT006 BKN015 14/13 Q1015 TEMPO BKN008 EDDM 170650Z 26005KT 9999 FEW030 OVC045 13/11 Q1018 NOSIG ETSN 170620Z 25003KT 8000 BKN045 11/10 Q1017 BLACKBLU ETHN 170620Z 29002KT 9999 BKN045 13/11 Q1017 BLU BLU EDDN 170650Z 10005KT 7000 BKN006 11/10 Q1017 BECMG BKN015 EDDS 170650Z VRB01KT 9999 BKN048 14/12 Q1018 NOSIG

METAR Messwerte

Klicken Sie auf einen Ort, um die 36h-Historie abzurufen

Ort
m ü. NN
Zeit Temperatur Taupunkt Rel.
Luftfeuchte
Luftdruck:
Altimeter
NN
Station
Wind in Beaufort
(Knoten)
Sichtweite
(Meter)
Wolken
(Meter über Grund)
Wettererscheinung
Ansbach
467
Fr 17.09. 08:56121194 %1017
1018
962
W 2 (3)>= 10000Bedeckt (1400) 
Bad Windsheim / Illesheim
325
Fr 17.09. 08:561313100 %1018
1018
979
Windstill>= 10000Wolkig (1400) 
Erfurt-Bindersleben
323
Fr 17.09. 08:50131188 %1016
1016
978
W 3 (9)>= 10000Stark bewölkt (1100)
Leicht bewölkt (910)
 
Frankfurt
113
Fr 17.09. 08:50151282 %1017
1017
1003
SW 2 (3)
S - W
>= 10000Leicht bewölkt (1100) 
Grafenwöhr
415
Fr 17.09. 08:56131294 %1016
1016
967
W 2 (4)>= 10000Bedeckt (1400)
Leicht bewölkt (300)
 
Hof
568
Fr 17.09. 08:5011987 %1016
1017
949
W 2 (5)
WSW - WNW
>= 10000Wolkig (1300)
Leicht bewölkt (790)
 
Hohenfels
442
Fr 17.09. 08:56121194 %1017
1018
965
W 2 (3)>= 10000Bedeckt (1500)
Stark bewölkt (240)
 
Ingolstadt
370
Fr 17.09. 08:20121088 %1017
1018
973
WSW 2 (3)>= 10000Stark bewölkt (1500) 
Leipzig-Schkeuditz
149
Fr 17.09. 08:50141394 %1015
1015
997
W 3 (7)4000Stark bewölkt (460)
Wolkig (180)
Regen/Nieselregen (schwach)
München
447
Fr 17.09. 08:50131188 %1018
1018
965
W 2 (5)>= 10000Bedeckt (1400)
Leicht bewölkt (910)
 
Neuburg/Donau
387
Fr 17.09. 08:20111094 %1017
1018
971
WSW 2 (3)8000Stark bewölkt (1400) 
Niederstetten
473
Fr 17.09. 08:20131188 %1017
1017
961
WNW 1 (2)>= 10000Stark bewölkt (1400) 
Nürnberg
312
Fr 17.09. 08:50111094 %1017
1018
980
O 2 (5)7000Stark bewölkt (180) 
Stuttgart
419
Fr 17.09. 08:50141288 %1018
1018
968
Uml 1 (1)>= 10000Stark bewölkt (1500) 

Altimeter: Einstellung am Altimeter (Höhenmesser), die Höhe 0 muss auf diesen Luftdruckwert zeigen, damit das Gerät die Stationshöhe richtig anzeigt.

NN: Luftdruck reduziert auf "Normal Null", auf Meereshöhe, dieser von der Temperatur abhängige Wert wird bisweilen unkorrekt einfach als "Luftdruck" bezeichnet. Eigentlich nur eine fiktive Größe, die es erlaubt, Stationen auf unterschiedlichen Höhen miteinander zu vergleichen.

Station: Realer Luftdruck an der Station.